sensor_id;sensor_type;location;lat;lon;timestamp;temperature;humidity
51839;DHT22;37886;53.174;6.368;2023-10-31T00:00:38;10.70;99.90
51839;DHT22;37886;53.174;6.368;2023-10-31T00:03:04;10.70;99.90
51839;DHT22;37886;53.174;6.368;2023-10-31T00:05:30;10.70;99.90
51839;DHT22;37886;53.174;6.368;2023-10-31T00:07:55;10.70;99.90
51839;DHT22;37886;53.174;6.368;2023-10-31T00:10:21;10.70;99.90
51839;DHT22;37886;53.174;6.368;2023-10-31T00:12:47;10.70;99.90
51839;DHT22;37886;53.174;6.368;2023-10-31T00:15:13;10.70;99.90
51839;DHT22;37886;53.174;6.368;2023-10-31T00:17:39;10.70;99.90
51839;DHT22;37886;53.174;6.368;2023-10-31T00:20:05;10.70;99.90
51839;DHT22;37886;53.174;6.368;2023-10-31T00:22:31;10.70;99.90
51839;DHT22;37886;53.174;6.368;2023-10-31T00:24:57;10.70;99.90
51839;DHT22;37886;53.174;6.368;2023-10-31T00:27:23;10.70;99.90
51839;DHT22;37886;53.174;6.368;2023-10-31T00:29:48;10.70;99.90
51839;DHT22;37886;53.174;6.368;2023-10-31T00:32:14;10.70;99.90
51839;DHT22;37886;53.174;6.368;2023-10-31T00:34:40;10.70;99.90
51839;DHT22;37886;53.174;6.368;2023-10-31T00:37:05;10.70;99.90
51839;DHT22;37886;53.174;6.368;2023-10-31T00:39:31;10.70;99.90
51839;DHT22;37886;53.174;6.368;2023-10-31T00:41:59;10.70;99.90
51839;DHT22;37886;53.174;6.368;2023-10-31T00:44:24;10.70;99.90
51839;DHT22;37886;53.174;6.368;2023-10-31T00:46:50;10.70;99.90
51839;DHT22;37886;53.174;6.368;2023-10-31T00:49:16;10.70;99.90
51839;DHT22;37886;53.174;6.368;2023-10-31T00:51:41;10.70;99.90
51839;DHT22;37886;53.174;6.368;2023-10-31T00:54:07;10.70;99.90
51839;DHT22;37886;53.174;6.368;2023-10-31T00:56:33;10.70;99.90
51839;DHT22;37886;53.174;6.368;2023-10-31T00:59:00;10.70;99.90
51839;DHT22;37886;53.174;6.368;2023-10-31T01:01:25;10.70;99.90
51839;DHT22;37886;53.174;6.368;2023-10-31T01:03:51;10.80;99.90
51839;DHT22;37886;53.174;6.368;2023-10-31T01:06:17;10.70;99.90
51839;DHT22;37886;53.174;6.368;2023-10-31T01:08:42;10.70;99.90
51839;DHT22;37886;53.174;6.368;2023-10-31T01:11:08;10.70;99.90
51839;DHT22;37886;53.174;6.368;2023-10-31T01:13:34;10.60;99.90
51839;DHT22;37886;53.174;6.368;2023-10-31T01:15:59;10.60;99.90
51839;DHT22;37886;53.174;6.368;2023-10-31T01:18:25;10.70;99.90
51839;DHT22;37886;53.174;6.368;2023-10-31T01:20:51;10.60;99.90
51839;DHT22;37886;53.174;6.368;2023-10-31T01:23:17;10.60;99.90
51839;DHT22;37886;53.174;6.368;2023-10-31T01:25:42;10.50;99.90
51839;DHT22;37886;53.174;6.368;2023-10-31T01:28:08;10.50;99.90
51839;DHT22;37886;53.174;6.368;2023-10-31T01:30:34;10.50;99.90
51839;DHT22;37886;53.174;6.368;2023-10-31T01:32:59;10.50;99.90
51839;DHT22;37886;53.174;6.368;2023-10-31T01:35:25;10.50;99.90
51839;DHT22;37886;53.174;6.368;2023-10-31T01:37:51;10.50;99.90
51839;DHT22;37886;53.174;6.368;2023-10-31T01:40:16;10.50;99.90
51839;DHT22;37886;53.174;6.368;2023-10-31T01:42:42;10.40;99.90
51839;DHT22;37886;53.174;6.368;2023-10-31T01:45:08;10.40;99.90
51839;DHT22;37886;53.174;6.368;2023-10-31T01:47:34;10.40;99.90
51839;DHT22;37886;53.174;6.368;2023-10-31T01:50:00;10.40;99.90
51839;DHT22;37886;53.174;6.368;2023-10-31T01:52:26;10.30;99.90
51839;DHT22;37886;53.174;6.368;2023-10-31T01:54:53;10.40;99.90
51839;DHT22;37886;53.174;6.368;2023-10-31T01:57:21;10.30;99.90
51839;DHT22;37886;53.174;6.368;2023-10-31T01:59:47;10.40;99.90
51839;DHT22;37886;53.174;6.368;2023-10-31T02:02:13;10.40;99.90
51839;DHT22;37886;53.174;6.368;2023-10-31T02:04:39;10.40;99.90
51839;DHT22;37886;53.174;6.368;2023-10-31T02:07:05;10.40;99.90
51839;DHT22;37886;53.174;6.368;2023-10-31T02:09:32;10.40;99.90
51839;DHT22;37886;53.174;6.368;2023-10-31T02:11:58;10.40;99.90
51839;DHT22;37886;53.174;6.368;2023-10-31T02:14:24;10.40;99.90
51839;DHT22;37886;53.174;6.368;2023-10-31T02:16:50;10.40;99.90
51839;DHT22;37886;53.174;6.368;2023-10-31T02:19:19;10.40;99.90
51839;DHT22;37886;53.174;6.368;2023-10-31T02:21:45;10.40;99.90
51839;DHT22;37886;53.174;6.368;2023-10-31T02:24:11;10.40;99.90
51839;DHT22;37886;53.174;6.368;2023-10-31T02:26:37;10.40;99.90
51839;DHT22;37886;53.174;6.368;2023-10-31T02:29:03;10.40;99.90
51839;DHT22;37886;53.174;6.368;2023-10-31T02:31:29;10.40;99.90
51839;DHT22;37886;53.174;6.368;2023-10-31T02:33:54;10.40;99.90
51839;DHT22;37886;53.174;6.368;2023-10-31T02:36:20;10.40;99.90
51839;DHT22;37886;53.174;6.368;2023-10-31T02:38:47;10.40;99.90
51839;DHT22;37886;53.174;6.368;2023-10-31T02:41:13;10.40;99.90
51839;DHT22;37886;53.174;6.368;2023-10-31T02:43:39;10.40;99.90
51839;DHT22;37886;53.174;6.368;2023-10-31T02:46:06;10.40;99.90
51839;DHT22;37886;53.174;6.368;2023-10-31T02:48:32;10.40;99.90
51839;DHT22;37886;53.174;6.368;2023-10-31T02:51:06;10.50;99.90
51839;DHT22;37886;53.174;6.368;2023-10-31T02:53:35;10.50;99.90
51839;DHT22;37886;53.174;6.368;2023-10-31T02:56:01;10.40;99.90
51839;DHT22;37886;53.174;6.368;2023-10-31T02:58:28;10.50;99.90
51839;DHT22;37886;53.174;6.368;2023-10-31T03:00:53;10.50;99.90
51839;DHT22;37886;53.174;6.368;2023-10-31T03:03:19;10.50;99.90
51839;DHT22;37886;53.174;6.368;2023-10-31T03:05:44;10.50;99.90
51839;DHT22;37886;53.174;6.368;2023-10-31T03:08:10;10.50;99.90
51839;DHT22;37886;53.174;6.368;2023-10-31T03:10:38;10.50;99.90
51839;DHT22;37886;53.174;6.368;2023-10-31T03:13:04;10.50;99.90
51839;DHT22;37886;53.174;6.368;2023-10-31T03:15:30;10.50;99.90
51839;DHT22;37886;53.174;6.368;2023-10-31T03:17:55;10.50;99.90
51839;DHT22;37886;53.174;6.368;2023-10-31T03:20:21;10.50;99.90
51839;DHT22;37886;53.174;6.368;2023-10-31T03:22:47;10.50;99.90
51839;DHT22;37886;53.174;6.368;2023-10-31T03:25:12;10.60;99.90
51839;DHT22;37886;53.174;6.368;2023-10-31T03:27:38;10.60;99.90
51839;DHT22;37886;53.174;6.368;2023-10-31T03:30:04;10.60;99.90
51839;DHT22;37886;53.174;6.368;2023-10-31T03:32:30;10.60;99.90
51839;DHT22;37886;53.174;6.368;2023-10-31T03:34:55;10.60;99.90
51839;DHT22;37886;53.174;6.368;2023-10-31T03:37:21;10.60;99.90
51839;DHT22;37886;53.174;6.368;2023-10-31T03:39:47;10.60;99.90
51839;DHT22;37886;53.174;6.368;2023-10-31T03:42:12;10.60;99.90
51839;DHT22;37886;53.174;6.368;2023-10-31T03:44:38;10.70;99.90
51839;DHT22;37886;53.174;6.368;2023-10-31T03:47:04;10.70;99.90
51839;DHT22;37886;53.174;6.368;2023-10-31T03:49:30;10.80;99.90
51839;DHT22;37886;53.174;6.368;2023-10-31T03:51:55;10.80;99.90
51839;DHT22;37886;53.174;6.368;2023-10-31T03:54:21;10.80;99.90
51839;DHT22;37886;53.174;6.368;2023-10-31T03:56:47;10.80;99.90
51839;DHT22;37886;53.174;6.368;2023-10-31T03:59:14;10.80;99.90
51839;DHT22;37886;53.174;6.368;2023-10-31T04:01:39;10.80;99.90
51839;DHT22;37886;53.174;6.368;2023-10-31T04:04:06;10.80;99.90
51839;DHT22;37886;53.174;6.368;2023-10-31T04:06:32;10.80;99.90
51839;DHT22;37886;53.174;6.368;2023-10-31T04:08:57;10.80;99.90
51839;DHT22;37886;53.174;6.368;2023-10-31T04:11:23;10.70;99.90
51839;DHT22;37886;53.174;6.368;2023-10-31T04:13:49;10.80;99.90
51839;DHT22;37886;53.174;6.368;2023-10-31T04:16:15;10.80;99.90
51839;DHT22;37886;53.174;6.368;2023-10-31T04:18:41;10.70;99.90
51839;DHT22;37886;53.174;6.368;2023-10-31T04:21:07;10.70;99.90
51839;DHT22;37886;53.174;6.368;2023-10-31T04:23:32;10.80;99.90
51839;DHT22;37886;53.174;6.368;2023-10-31T04:25:58;10.80;99.90
51839;DHT22;37886;53.174;6.368;2023-10-31T04:28:24;10.80;99.90
51839;DHT22;37886;53.174;6.368;2023-10-31T04:30:49;10.80;99.90
51839;DHT22;37886;53.174;6.368;2023-10-31T04:33:15;10.80;99.90
51839;DHT22;37886;53.174;6.368;2023-10-31T04:35:41;10.80;99.90
51839;DHT22;37886;53.174;6.368;2023-10-31T04:38:07;10.80;99.90
51839;DHT22;37886;53.174;6.368;2023-10-31T04:40:32;10.80;99.90
51839;DHT22;37886;53.174;6.368;2023-10-31T04:42:58;10.80;99.90
51839;DHT22;37886;53.174;6.368;2023-10-31T04:45:23;10.80;99.90
51839;DHT22;37886;53.174;6.368;2023-10-31T04:47:49;10.80;99.90
51839;DHT22;37886;53.174;6.368;2023-10-31T04:50:15;10.80;99.90
51839;DHT22;37886;53.174;6.368;2023-10-31T04:52:40;10.80;99.90
51839;DHT22;37886;53.174;6.368;2023-10-31T04:55:07;10.80;99.90
51839;DHT22;37886;53.174;6.368;2023-10-31T04:57:33;10.80;99.90
51839;DHT22;37886;53.174;6.368;2023-10-31T04:59:59;10.80;99.90
51839;DHT22;37886;53.174;6.368;2023-10-31T05:02:25;10.70;99.90
51839;DHT22;37886;53.174;6.368;2023-10-31T05:04:51;10.80;99.90
51839;DHT22;37886;53.174;6.368;2023-10-31T05:07:17;10.80;99.90
51839;DHT22;37886;53.174;6.368;2023-10-31T05:09:43;10.70;99.90
51839;DHT22;37886;53.174;6.368;2023-10-31T05:12:08;10.70;99.90
51839;DHT22;37886;53.174;6.368;2023-10-31T05:14:35;10.70;99.90
51839;DHT22;37886;53.174;6.368;2023-10-31T05:17:00;10.70;99.90
51839;DHT22;37886;53.174;6.368;2023-10-31T05:19:26;10.70;99.90
51839;DHT22;37886;53.174;6.368;2023-10-31T05:21:52;10.70;99.90
51839;DHT22;37886;53.174;6.368;2023-10-31T05:24:18;10.60;99.90
51839;DHT22;37886;53.174;6.368;2023-10-31T05:26:43;10.60;99.90
51839;DHT22;37886;53.174;6.368;2023-10-31T05:29:10;10.60;99.90
51839;DHT22;37886;53.174;6.368;2023-10-31T05:31:36;10.60;99.90
51839;DHT22;37886;53.174;6.368;2023-10-31T05:34:01;10.60;99.90
51839;DHT22;37886;53.174;6.368;2023-10-31T05:36:29;10.60;99.90
51839;DHT22;37886;53.174;6.368;2023-10-31T05:38:55;10.60;99.90
51839;DHT22;37886;53.174;6.368;2023-10-31T05:41:21;10.60;99.90
51839;DHT22;37886;53.174;6.368;2023-10-31T05:43:47;10.60;99.90
51839;DHT22;37886;53.174;6.368;2023-10-31T05:46:12;10.70;99.90
51839;DHT22;37886;53.174;6.368;2023-10-31T05:48:43;10.70;99.90
51839;DHT22;37886;53.174;6.368;2023-10-31T05:51:16;10.70;99.90
51839;DHT22;37886;53.174;6.368;2023-10-31T05:53:44;10.70;99.90
51839;DHT22;37886;53.174;6.368;2023-10-31T05:56:12;10.70;99.90
51839;DHT22;37886;53.174;6.368;2023-10-31T05:58:38;10.70;99.90
51839;DHT22;37886;53.174;6.368;2023-10-31T06:01:04;10.70;99.90
51839;DHT22;37886;53.174;6.368;2023-10-31T06:03:30;10.70;99.90
51839;DHT22;37886;53.174;6.368;2023-10-31T06:05:56;10.70;99.90
51839;DHT22;37886;53.174;6.368;2023-10-31T06:08:22;10.80;99.90
51839;DHT22;37886;53.174;6.368;2023-10-31T06:10:50;10.80;99.90
51839;DHT22;37886;53.174;6.368;2023-10-31T06:13:16;10.80;99.90
51839;DHT22;37886;53.174;6.368;2023-10-31T06:15:42;10.80;99.90
51839;DHT22;37886;53.174;6.368;2023-10-31T06:18:08;10.80;99.90
51839;DHT22;37886;53.174;6.368;2023-10-31T06:20:34;10.80;99.90
51839;DHT22;37886;53.174;6.368;2023-10-31T06:23:01;10.90;99.90
51839;DHT22;37886;53.174;6.368;2023-10-31T06:25:29;10.90;99.90
51839;DHT22;37886;53.174;6.368;2023-10-31T06:27:55;10.90;99.90
51839;DHT22;37886;53.174;6.368;2023-10-31T06:30:20;10.90;99.90
51839;DHT22;37886;53.174;6.368;2023-10-31T06:32:46;10.90;99.90
51839;DHT22;37886;53.174;6.368;2023-10-31T06:35:12;10.90;99.90
51839;DHT22;37886;53.174;6.368;2023-10-31T06:37:38;10.90;99.90
51839;DHT22;37886;53.174;6.368;2023-10-31T06:40:06;10.90;99.90
51839;DHT22;37886;53.174;6.368;2023-10-31T06:42:32;10.90;99.90
51839;DHT22;37886;53.174;6.368;2023-10-31T06:44:58;10.90;99.90
51839;DHT22;37886;53.174;6.368;2023-10-31T06:47:23;10.90;99.90
51839;DHT22;37886;53.174;6.368;2023-10-31T06:49:49;10.90;99.90
51839;DHT22;37886;53.174;6.368;2023-10-31T06:52:15;10.90;99.90
51839;DHT22;37886;53.174;6.368;2023-10-31T06:54:40;10.90;99.90
51839;DHT22;37886;53.174;6.368;2023-10-31T06:57:06;10.90;99.90
51839;DHT22;37886;53.174;6.368;2023-10-31T06:59:32;10.90;99.90
51839;DHT22;37886;53.174;6.368;2023-10-31T07:01:57;10.90;99.90
51839;DHT22;37886;53.174;6.368;2023-10-31T07:04:23;10.90;99.90
51839;DHT22;37886;53.174;6.368;2023-10-31T07:06:49;10.90;99.90
51839;DHT22;37886;53.174;6.368;2023-10-31T07:09:14;10.90;99.90
51839;DHT22;37886;53.174;6.368;2023-10-31T07:11:40;10.90;99.90
51839;DHT22;37886;53.174;6.368;2023-10-31T07:14:06;10.90;99.90
51839;DHT22;37886;53.174;6.368;2023-10-31T07:16:32;10.90;99.90
51839;DHT22;37886;53.174;6.368;2023-10-31T07:18:58;10.90;99.90
51839;DHT22;37886;53.174;6.368;2023-10-31T07:21:24;10.90;99.90
51839;DHT22;37886;53.174;6.368;2023-10-31T07:23:49;10.90;99.90
51839;DHT22;37886;53.174;6.368;2023-10-31T07:26:16;10.90;99.90
51839;DHT22;37886;53.174;6.368;2023-10-31T07:28:41;11.00;99.90
51839;DHT22;37886;53.174;6.368;2023-10-31T07:31:07;11.00;99.90
51839;DHT22;37886;53.174;6.368;2023-10-31T07:33:33;11.00;99.90
51839;DHT22;37886;53.174;6.368;2023-10-31T07:35:58;11.10;99.90
51839;DHT22;37886;53.174;6.368;2023-10-31T07:38:24;11.10;99.90
51839;DHT22;37886;53.174;6.368;2023-10-31T07:40:50;11.20;99.90
51839;DHT22;37886;53.174;6.368;2023-10-31T07:43:16;11.20;99.90
51839;DHT22;37886;53.174;6.368;2023-10-31T07:45:42;11.20;99.90
51839;DHT22;37886;53.174;6.368;2023-10-31T07:48:08;11.30;99.90
51839;DHT22;37886;53.174;6.368;2023-10-31T07:50:34;11.20;99.90
51839;DHT22;37886;53.174;6.368;2023-10-31T07:52:59;11.30;99.90
51839;DHT22;37886;53.174;6.368;2023-10-31T07:55:25;11.30;99.90
51839;DHT22;37886;53.174;6.368;2023-10-31T07:57:51;11.30;99.90
51839;DHT22;37886;53.174;6.368;2023-10-31T08:00:17;11.40;99.90
51839;DHT22;37886;53.174;6.368;2023-10-31T08:02:42;11.30;99.90
51839;DHT22;37886;53.174;6.368;2023-10-31T08:05:10;11.40;99.90
51839;DHT22;37886;53.174;6.368;2023-10-31T08:07:36;11.40;99.90
51839;DHT22;37886;53.174;6.368;2023-10-31T08:10:02;11.50;99.90
51839;DHT22;37886;53.174;6.368;2023-10-31T08:12:29;11.50;99.90
51839;DHT22;37886;53.174;6.368;2023-10-31T08:14:55;11.50;99.90
51839;DHT22;37886;53.174;6.368;2023-10-31T08:17:21;11.50;99.90
51839;DHT22;37886;53.174;6.368;2023-10-31T08:19:46;11.60;99.90
51839;DHT22;37886;53.174;6.368;2023-10-31T08:22:13;11.60;99.90
51839;DHT22;37886;53.174;6.368;2023-10-31T08:24:39;11.50;99.90
51839;DHT22;37886;53.174;6.368;2023-10-31T08:27:05;11.50;99.90
51839;DHT22;37886;53.174;6.368;2023-10-31T08:29:31;11.60;99.90
51839;DHT22;37886;53.174;6.368;2023-10-31T08:31:57;11.60;99.90
51839;DHT22;37886;53.174;6.368;2023-10-31T08:34:22;11.60;99.90
51839;DHT22;37886;53.174;6.368;2023-10-31T08:36:48;11.60;99.90
51839;DHT22;37886;53.174;6.368;2023-10-31T08:39:14;11.70;99.90
51839;DHT22;37886;53.174;6.368;2023-10-31T08:42:00;11.80;99.90
51839;DHT22;37886;53.174;6.368;2023-10-31T08:44:26;11.90;99.90
51839;DHT22;37886;53.174;6.368;2023-10-31T08:46:52;11.90;99.90
51839;DHT22;37886;53.174;6.368;2023-10-31T08:49:17;12.00;99.90
51839;DHT22;37886;53.174;6.368;2023-10-31T08:51:44;12.00;99.90
51839;DHT22;37886;53.174;6.368;2023-10-31T08:54:10;12.00;99.90
51839;DHT22;37886;53.174;6.368;2023-10-31T08:56:36;12.00;99.90
51839;DHT22;37886;53.174;6.368;2023-10-31T08:59:01;12.00;99.90
51839;DHT22;37886;53.174;6.368;2023-10-31T09:01:27;12.00;99.90
51839;DHT22;37886;53.174;6.368;2023-10-31T09:03:56;12.10;99.90
51839;DHT22;37886;53.174;6.368;2023-10-31T09:06:24;12.00;99.90
51839;DHT22;37886;53.174;6.368;2023-10-31T09:08:49;11.90;99.90
51839;DHT22;37886;53.174;6.368;2023-10-31T09:11:15;11.90;99.90
51839;DHT22;37886;53.174;6.368;2023-10-31T09:13:41;12.00;99.90
51839;DHT22;37886;53.174;6.368;2023-10-31T09:16:07;11.90;99.90
51839;DHT22;37886;53.174;6.368;2023-10-31T09:18:33;11.90;99.90
51839;DHT22;37886;53.174;6.368;2023-10-31T09:21:00;11.90;99.90
51839;DHT22;37886;53.174;6.368;2023-10-31T09:23:27;11.90;99.90
51839;DHT22;37886;53.174;6.368;2023-10-31T09:25:55;11.90;99.90
51839;DHT22;37886;53.174;6.368;2023-10-31T09:28:20;11.90;99.90
51839;DHT22;37886;53.174;6.368;2023-10-31T09:30:46;11.80;99.90
51839;DHT22;37886;53.174;6.368;2023-10-31T09:33:12;11.80;99.90
51839;DHT22;37886;53.174;6.368;2023-10-31T09:35:38;11.80;99.90
51839;DHT22;37886;53.174;6.368;2023-10-31T09:38:04;11.80;99.90
51839;DHT22;37886;53.174;6.368;2023-10-31T09:40:29;11.90;99.90
51839;DHT22;37886;53.174;6.368;2023-10-31T09:42:55;12.00;99.90
51839;DHT22;37886;53.174;6.368;2023-10-31T09:45:21;12.00;99.90
51839;DHT22;37886;53.174;6.368;2023-10-31T09:47:47;12.00;99.90
51839;DHT22;37886;53.174;6.368;2023-10-31T09:50:13;12.00;99.90
51839;DHT22;37886;53.174;6.368;2023-10-31T09:52:39;12.00;99.90
51839;DHT22;37886;53.174;6.368;2023-10-31T09:55:05;12.00;99.90
51839;DHT22;37886;53.174;6.368;2023-10-31T09:57:32;12.00;99.90
51839;DHT22;37886;53.174;6.368;2023-10-31T09:59:58;12.10;99.90
51839;DHT22;37886;53.174;6.368;2023-10-31T10:02:24;12.20;99.90
51839;DHT22;37886;53.174;6.368;2023-10-31T10:04:50;12.20;99.90
51839;DHT22;37886;53.174;6.368;2023-10-31T10:07:17;12.20;99.90
51839;DHT22;37886;53.174;6.368;2023-10-31T10:09:45;12.10;99.90
51839;DHT22;37886;53.174;6.368;2023-10-31T10:12:17;12.10;99.90
51839;DHT22;37886;53.174;6.368;2023-10-31T10:14:45;12.00;99.90
51839;DHT22;37886;53.174;6.368;2023-10-31T10:17:29;12.10;99.90
51839;DHT22;37886;53.174;6.368;2023-10-31T10:20:09;12.10;99.90
51839;DHT22;37886;53.174;6.368;2023-10-31T10:22:42;12.10;99.90
51839;DHT22;37886;53.174;6.368;2023-10-31T10:25:17;12.20;99.90
51839;DHT22;37886;53.174;6.368;2023-10-31T10:27:47;12.10;99.90
51839;DHT22;37886;53.174;6.368;2023-10-31T10:30:14;12.20;99.90
51839;DHT22;37886;53.174;6.368;2023-10-31T10:32:40;12.20;99.90
51839;DHT22;37886;53.174;6.368;2023-10-31T10:35:07;12.20;99.90
51839;DHT22;37886;53.174;6.368;2023-10-31T10:37:34;12.20;99.90
51839;DHT22;37886;53.174;6.368;2023-10-31T10:40:03;12.30;99.90
51839;DHT22;37886;53.174;6.368;2023-10-31T10:42:33;12.30;99.90
51839;DHT22;37886;53.174;6.368;2023-10-31T10:45:03;12.30;99.90
51839;DHT22;37886;53.174;6.368;2023-10-31T10:47:33;12.30;99.90
51839;DHT22;37886;53.174;6.368;2023-10-31T10:50:01;12.30;99.90
51839;DHT22;37886;53.174;6.368;2023-10-31T10:52:38;12.30;99.90
51839;DHT22;37886;53.174;6.368;2023-10-31T10:55:11;12.30;99.90
51839;DHT22;37886;53.174;6.368;2023-10-31T10:57:38;12.40;99.90
51839;DHT22;37886;53.174;6.368;2023-10-31T11:00:05;12.50;99.90
51839;DHT22;37886;53.174;6.368;2023-10-31T11:02:36;12.70;99.90
51839;DHT22;37886;53.174;6.368;2023-10-31T11:05:05;12.80;99.90
51839;DHT22;37886;53.174;6.368;2023-10-31T11:07:32;12.70;99.90
51839;DHT22;37886;53.174;6.368;2023-10-31T11:09:59;12.60;99.90
51839;DHT22;37886;53.174;6.368;2023-10-31T11:12:29;12.50;99.90
51839;DHT22;37886;53.174;6.368;2023-10-31T11:14:57;12.60;99.90
51839;DHT22;37886;53.174;6.368;2023-10-31T11:17:32;12.60;99.90
51839;DHT22;37886;53.174;6.368;2023-10-31T11:20:01;12.70;99.90
51839;DHT22;37886;53.174;6.368;2023-10-31T11:22:41;12.80;99.90
51839;DHT22;37886;53.174;6.368;2023-10-31T11:25:09;12.80;99.90
51839;DHT22;37886;53.174;6.368;2023-10-31T11:27:35;12.80;99.90
51839;DHT22;37886;53.174;6.368;2023-10-31T11:30:05;12.80;99.90
51839;DHT22;37886;53.174;6.368;2023-10-31T11:32:32;12.80;99.90
51839;DHT22;37886;53.174;6.368;2023-10-31T11:34:59;12.70;99.90
51839;DHT22;37886;53.174;6.368;2023-10-31T11:37:32;12.80;99.90
51839;DHT22;37886;53.174;6.368;2023-10-31T11:40:22;12.70;99.90
51839;DHT22;37886;53.174;6.368;2023-10-31T11:43:06;12.60;99.90
51839;DHT22;37886;53.174;6.368;2023-10-31T11:48:00;12.50;99.90
51839;DHT22;37886;53.174;6.368;2023-10-31T11:50:25;12.50;99.90
51839;DHT22;37886;53.174;6.368;2023-10-31T11:55:40;12.80;99.90
51839;DHT22;37886;53.174;6.368;2023-10-31T11:58:25;12.80;99.90
51839;DHT22;37886;53.174;6.368;2023-10-31T12:01:09;13.00;99.90
51839;DHT22;37886;53.174;6.368;2023-10-31T12:03:40;12.90;99.90
51839;DHT22;37886;53.174;6.368;2023-10-31T12:06:07;13.10;99.90
51839;DHT22;37886;53.174;6.368;2023-10-31T12:08:40;13.10;99.90
51839;DHT22;37886;53.174;6.368;2023-10-31T12:11:11;13.00;99.90
51839;DHT22;37886;53.174;6.368;2023-10-31T12:13:37;12.70;99.90
51839;DHT22;37886;53.174;6.368;2023-10-31T12:16:05;12.60;99.90
51839;DHT22;37886;53.174;6.368;2023-10-31T12:18:35;12.50;99.90
51839;DHT22;37886;53.174;6.368;2023-10-31T12:21:01;12.30;99.90
51839;DHT22;37886;53.174;6.368;2023-10-31T12:23:27;12.20;99.90
51839;DHT22;37886;53.174;6.368;2023-10-31T12:25:53;12.10;99.90
51839;DHT22;37886;53.174;6.368;2023-10-31T12:28:20;12.00;99.90
51839;DHT22;37886;53.174;6.368;2023-10-31T12:30:48;12.00;99.90
51839;DHT22;37886;53.174;6.368;2023-10-31T12:33:15;12.00;99.90
51839;DHT22;37886;53.174;6.368;2023-10-31T12:35:42;12.00;99.90
51839;DHT22;37886;53.174;6.368;2023-10-31T12:38:10;12.00;99.90
51839;DHT22;37886;53.174;6.368;2023-10-31T12:40:38;11.90;99.90
51839;DHT22;37886;53.174;6.368;2023-10-31T12:43:07;12.00;99.90
51839;DHT22;37886;53.174;6.368;2023-10-31T12:45:33;12.00;99.90
51839;DHT22;37886;53.174;6.368;2023-10-31T12:48:09;11.90;99.90
51839;DHT22;37886;53.174;6.368;2023-10-31T12:50:36;11.70;99.90
51839;DHT22;37886;53.174;6.368;2023-10-31T12:53:03;11.70;99.90
51839;DHT22;37886;53.174;6.368;2023-10-31T12:55:31;11.60;99.90
51839;DHT22;37886;53.174;6.368;2023-10-31T12:58:02;11.60;99.90
51839;DHT22;37886;53.174;6.368;2023-10-31T13:00:33;11.50;99.90
51839;DHT22;37886;53.174;6.368;2023-10-31T13:03:07;11.60;99.90
51839;DHT22;37886;53.174;6.368;2023-10-31T13:05:34;11.40;99.90
51839;DHT22;37886;53.174;6.368;2023-10-31T13:08:00;11.30;99.90
51839;DHT22;37886;53.174;6.368;2023-10-31T13:10:29;11.40;99.90
51839;DHT22;37886;53.174;6.368;2023-10-31T13:12:55;11.50;99.90
51839;DHT22;37886;53.174;6.368;2023-10-31T13:15:22;11.60;99.90
51839;DHT22;37886;53.174;6.368;2023-10-31T13:17:49;11.60;99.90
51839;DHT22;37886;53.174;6.368;2023-10-31T13:20:16;11.60;99.90
51839;DHT22;37886;53.174;6.368;2023-10-31T13:22:43;11.60;99.90
51839;DHT22;37886;53.174;6.368;2023-10-31T13:25:12;11.60;99.90
51839;DHT22;37886;53.174;6.368;2023-10-31T13:27:39;11.60;99.90
51839;DHT22;37886;53.174;6.368;2023-10-31T13:30:06;11.60;99.90
51839;DHT22;37886;53.174;6.368;2023-10-31T13:32:34;11.60;99.90
51839;DHT22;37886;53.174;6.368;2023-10-31T13:35:00;11.60;99.90
51839;DHT22;37886;53.174;6.368;2023-10-31T13:37:26;11.70;99.90
51839;DHT22;37886;53.174;6.368;2023-10-31T13:39:52;11.70;99.90
51839;DHT22;37886;53.174;6.368;2023-10-31T13:42:17;11.60;99.90
51839;DHT22;37886;53.174;6.368;2023-10-31T13:44:44;11.70;99.90
51839;DHT22;37886;53.174;6.368;2023-10-31T13:47:10;11.70;99.90
51839;DHT22;37886;53.174;6.368;2023-10-31T13:49:36;11.90;99.90
51839;DHT22;37886;53.174;6.368;2023-10-31T13:52:03;11.90;99.90
51839;DHT22;37886;53.174;6.368;2023-10-31T13:54:29;12.30;99.90
51839;DHT22;37886;53.174;6.368;2023-10-31T13:56:55;13.60;99.90
51839;DHT22;37886;53.174;6.368;2023-10-31T13:59:20;15.40;99.90
51839;DHT22;37886;53.174;6.368;2023-10-31T14:01:46;16.20;99.90
51839;DHT22;37886;53.174;6.368;2023-10-31T14:04:13;16.30;99.90
51839;DHT22;37886;53.174;6.368;2023-10-31T14:06:39;15.50;99.90
51839;DHT22;37886;53.174;6.368;2023-10-31T14:09:05;14.90;99.90
51839;DHT22;37886;53.174;6.368;2023-10-31T14:11:33;14.20;99.90
51839;DHT22;37886;53.174;6.368;2023-10-31T14:13:59;13.80;99.90
51839;DHT22;37886;53.174;6.368;2023-10-31T14:16:35;13.30;99.90
51839;DHT22;37886;53.174;6.368;2023-10-31T14:19:01;12.80;99.90
51839;DHT22;37886;53.174;6.368;2023-10-31T14:21:28;12.70;99.90
51839;DHT22;37886;53.174;6.368;2023-10-31T14:23:54;12.60;99.90
51839;DHT22;37886;53.174;6.368;2023-10-31T14:26:20;12.60;99.90
51839;DHT22;37886;53.174;6.368;2023-10-31T14:28:46;12.40;99.90
51839;DHT22;37886;53.174;6.368;2023-10-31T14:31:13;12.30;99.90
51839;DHT22;37886;53.174;6.368;2023-10-31T14:33:38;12.10;99.90
51839;DHT22;37886;53.174;6.368;2023-10-31T14:36:04;12.10;99.90
51839;DHT22;37886;53.174;6.368;2023-10-31T14:38:30;12.00;99.90
51839;DHT22;37886;53.174;6.368;2023-10-31T14:40:56;11.90;99.90
51839;DHT22;37886;53.174;6.368;2023-10-31T14:43:21;12.00;99.90
51839;DHT22;37886;53.174;6.368;2023-10-31T14:45:47;11.90;99.90
51839;DHT22;37886;53.174;6.368;2023-10-31T14:48:13;11.90;99.90
51839;DHT22;37886;53.174;6.368;2023-10-31T14:50:38;11.90;99.90
51839;DHT22;37886;53.174;6.368;2023-10-31T14:53:05;11.80;99.90
51839;DHT22;37886;53.174;6.368;2023-10-31T14:55:31;11.80;99.90
51839;DHT22;37886;53.174;6.368;2023-10-31T14:57:57;11.80;99.90
51839;DHT22;37886;53.174;6.368;2023-10-31T15:00:22;11.80;99.90
51839;DHT22;37886;53.174;6.368;2023-10-31T15:02:48;11.80;99.90
51839;DHT22;37886;53.174;6.368;2023-10-31T15:05:14;11.70;99.90
51839;DHT22;37886;53.174;6.368;2023-10-31T15:07:39;11.70;99.90
51839;DHT22;37886;53.174;6.368;2023-10-31T15:10:06;11.80;99.90
51839;DHT22;37886;53.174;6.368;2023-10-31T15:12:32;11.70;99.90
51839;DHT22;37886;53.174;6.368;2023-10-31T15:14:58;11.70;99.90
51839;DHT22;37886;53.174;6.368;2023-10-31T15:17:24;11.70;99.90
51839;DHT22;37886;53.174;6.368;2023-10-31T15:19:50;11.60;99.90
51839;DHT22;37886;53.174;6.368;2023-10-31T15:22:15;11.60;99.90
51839;DHT22;37886;53.174;6.368;2023-10-31T15:24:41;11.50;99.90
51839;DHT22;37886;53.174;6.368;2023-10-31T15:27:07;11.50;99.90
51839;DHT22;37886;53.174;6.368;2023-10-31T15:29:33;11.50;99.90
51839;DHT22;37886;53.174;6.368;2023-10-31T15:31:59;11.40;99.90